Time;durP1;ratioP1;P1;durP2;ratioP2;P2;SDS_P1;SDS_P2;PMS_P1;PMS_P2;Temp;Humidity;BMP_temperature;BMP_pressure;BME280_temperature;BME280_humidity;BME280_pressure;Samples;Min_cycle;Max_cycle;Signal;HPM_P1;HPM_P2
2023/07/05 04:25:37;;;;;;;0.80;0.80;;;15.10;99.90;;;;;;5020958;23;20294;-64
2023/07/05 04:28:05;;;;;;;0.57;0.57;;;15.10;99.90;;;;;;4974102;28;20227;-64
2023/07/05 04:30:31;;;;;;;0.80;0.80;;;15.70;99.90;;;;;;4978327;28;20239;-64
2023/07/05 04:32:58;;;;;;;0.77;0.77;;;16.60;99.90;;;;;;4978267;28;20211;-64
2023/07/05 04:35:25;;;;;;;0.95;0.95;;;17.50;99.90;;;;;;4978135;28;20228;-67
2023/07/05 04:37:51;;;;;;;0.95;0.95;;;18.40;99.90;;;;;;4978202;28;20249;-69
2023/07/05 04:40:18;;;;;;;0.90;0.90;;;19.20;99.90;;;;;;4978609;28;20214;-68
2023/07/05 04:42:46;;;;;;;1.13;1.13;;;19.60;99.90;;;;;;4978140;28;20203;-68
2023/07/05 04:45:14;;;;;;;0.80;0.80;;;;;;;;;;4978174;28;20226;-68
2023/07/05 04:47:41;;;;;;;0.90;0.90;;;19.00;99.90;;;;;;4977747;28;20597;-69
2023/07/05 04:50:10;;;;;;;0.82;0.82;;;;;;;;;;4977945;28;20650;-69
2023/07/05 04:52:37;;;;;;;0.80;0.80;;;;;;;;;;4977984;28;20203;-69
2023/07/05 04:55:07;;;;;;;0.98;0.98;;;;;;;;;;4977855;28;20231;-69
2023/07/05 04:57:36;;;;;;;0.70;0.70;;;;;;;;;;4977659;28;20794;-69
2023/07/05 05:00:05;;;;;;;1.10;1.10;;;;;;;;;;4977783;28;20203;-70
2023/07/05 05:02:32;;;;;;;0.90;0.90;;;;;;;;;;4977726;28;20203;-69
2023/07/05 05:04:59;;;;;;;0.75;0.75;;;17.30;99.90;;;;;;4977706;28;20294;-71
2023/07/05 05:07:26;;;;;;;1.05;1.05;;;17.10;99.90;;;;;;4977650;28;20207;-72
2023/07/05 05:09:53;;;;;;;0.82;0.80;;;;;;;;;;4977495;28;20227;-71
2023/07/05 05:12:20;;;;;;;0.90;0.90;;;;;;;;;;4977541;28;20282;-71
2023/07/05 05:14:47;;;;;;;0.90;0.90;;;;;;;;;;4977476;28;20219;-71
2023/07/05 05:17:15;;;;;;;0.80;0.80;;;17.20;99.90;;;;;;4977527;28;20258;-72
2023/07/05 05:19:42;;;;;;;1.30;1.30;;;17.30;99.90;;;;;;4977474;28;20294;-72
2023/07/05 05:22:12;;;;;;;1.30;1.30;;;20.30;99.90;;;;;;4977490;28;20613;-72
2023/07/05 05:24:41;;;;;;;1.30;1.30;;;21.20;99.90;;;;;;4977318;28;20289;-71
2023/07/05 05:27:11;;;;;;;0.90;0.90;;;;;;;;;;4977093;28;20219;-71
2023/07/05 05:29:40;;;;;;;0.88;0.88;;;21.30;99.90;;;;;;4978161;28;20277;-71
2023/07/05 05:32:11;;;;;;;0.90;0.90;;;;;;;;;;4977227;28;20206;-71
2023/07/05 05:34:41;;;;;;;0.80;0.80;;;21.30;99.90;;;;;;4976916;28;20722;-71
2023/07/05 05:37:11;;;;;;;1.02;1.02;;;;;;;;;;4977169;28;20187;-71
2023/07/05 05:39:42;;;;;;;1.15;1.15;;;23.10;99.90;;;;;;4976665;28;20767;-71
2023/07/05 05:42:11;;;;;;;1.10;1.10;;;24.40;99.90;;;;;;4976497;28;20199;-71
2023/07/05 05:44:39;;;;;;;1.20;1.20;;;;;;;;;;4976627;28;20574;-71
2023/07/05 05:47:08;;;;;;;0.95;0.95;;;;;;;;;;4976958;28;20265;-72
2023/07/05 05:49:36;;;;;;;1.02;1.02;;;;;;;;;;4976577;28;20698;-72
2023/07/05 05:52:06;;;;;;;0.98;0.98;;;;;;;;;;4976892;28;20617;-72
2023/07/05 05:54:35;;;;;;;1.10;1.08;;;;;;;;;;4976839;28;20305;-72
2023/07/05 05:57:02;;;;;;;1.77;1.10;;;;;;;;;;4976746;28;20307;-72
2023/07/05 05:59:30;;;;;;;0.70;0.70;;;;;;;;;;4976866;28;20198;-72
2023/07/05 06:01:57;;;;;;;0.90;0.90;;;27.20;99.90;;;;;;4977602;28;20206;-72
2023/07/05 06:04:24;;;;;;;0.90;0.80;;;;;;;;;;4976824;28;20314;-72
2023/07/05 06:06:52;;;;;;;0.82;0.82;;;;;;;;;;4985642;28;20206;-72
2023/07/05 06:09:24;;;;;;;1.08;1.08;;;;;;;;;;4988216;28;20218;-72
2023/07/05 06:11:51;;;;;;;1.00;1.00;;;27.10;99.90;;;;;;4986129;28;20639;-72
2023/07/05 06:14:17;;;;;;;0.93;0.93;;;27.60;99.90;;;;;;4977325;28;20585;-72
2023/07/05 06:16:44;;;;;;;1.35;1.35;;;28.20;99.90;;;;;;4976504;28;20206;-72
2023/07/05 06:19:11;;;;;;;1.00;1.00;;;28.60;99.90;;;;;;4976322;28;20253;-71
2023/07/05 06:21:38;;;;;;;1.10;1.10;;;;;;;;;;4975943;28;20202;-71
2023/07/05 06:24:06;;;;;;;0.75;0.75;;;28.50;99.90;;;;;;4979472;28;20225;-71
2023/07/05 06:26:34;;;;;;;1.00;0.98;;;28.80;99.90;;;;;;4979395;28;20293;-73
2023/07/05 06:29:02;;;;;;;1.10;1.10;;;29.00;99.90;;;;;;4980293;28;20206;-72
2023/07/05 06:31:33;;;;;;;1.00;1.00;;;29.80;99.90;;;;;;4981550;28;20219;-71
2023/07/05 06:34:00;;;;;;;0.90;0.90;;;;;;;;;;4978795;28;20218;-71
2023/07/05 06:36:28;;;;;;;0.95;0.95;;;30.10;99.90;;;;;;4980164;28;20242;-71
2023/07/05 06:38:55;;;;;;;0.85;0.85;;;;;;;;;;4980219;28;20238;-70
2023/07/05 06:41:23;;;;;;;1.10;1.10;;;;;;;;;;4980676;28;20186;-70
2023/07/05 06:43:52;;;;;;;2.28;1.08;;;;;;;;;;4980095;28;20330;-70
2023/07/05 06:46:19;;;;;;;1.10;1.10;;;26.80;99.90;;;;;;4980372;28;20213;-70
2023/07/05 06:48:47;;;;;;;0.90;0.90;;;;;;;;;;4980399;28;20581;-70
2023/07/05 06:51:14;;;;;;;1.00;1.00;;;25.50;99.90;;;;;;4980785;28;20706;-70
2023/07/05 06:53:41;;;;;;;1.13;1.10;;;;;;;;;;4979796;28;20230;-71
2023/07/05 06:56:09;;;;;;;1.05;1.05;;;24.30;99.90;;;;;;4980984;28;20213;-70
2023/07/05 06:58:37;;;;;;;1.30;1.20;;;;;;;;;;4980436;28;20210;-70
2023/07/05 07:01:07;;;;;;;1.35;1.35;;;;;;;;;;4980688;28;20237;-70
2023/07/05 07:03:34;;;;;;;1.23;1.13;;;;;;;;;;4977934;28;20222;-70
2023/07/05 07:06:04;;;;;;;1.30;1.30;;;;;;;;;;4975525;28;20230;-70
2023/07/05 07:08:33;;;;;;;1.30;1.25;;;;;;;;;;4975540;28;20196;-70
2023/07/05 07:11:01;;;;;;;2.50;1.23;;;;;;;;;;4975073;28;20261;-70
2023/07/05 07:13:29;;;;;;;1.40;1.30;;;;;;;;;;4975751;28;20222;-70
2023/07/05 07:16:01;;;;;;;1.23;1.23;;;;;;;;;;4975343;28;20199;-69
2023/07/05 07:18:30;;;;;;;1.40;1.40;;;;;;;;;;4975255;28;20210;-71
2023/07/05 07:20:59;;;;;;;1.15;1.15;;;;;;;;;;4975239;28;20261;-71
2023/07/05 07:23:28;;;;;;;1.45;1.45;;;;;;;;;;4975216;28;20276;-68
2023/07/05 07:26:00;;;;;;;1.40;1.40;;;;;;;;;;4975187;28;20266;-68
2023/07/05 07:28:28;;;;;;;2.08;1.20;;;;;;;;;;4975133;28;20194;-68
2023/07/05 07:30:56;;;;;;;1.33;1.25;;;;;;;;;;4975444;28;20230;-69
2023/07/05 07:33:24;;;;;;;1.20;1.15;;;;;;;;;;4975329;28;20190;-70
2023/07/05 07:35:54;;;;;;;1.60;1.50;;;;;;;;;;4975054;28;20257;-69
2023/07/05 07:38:22;;;;;;;1.60;1.58;;;;;;;;;;4974770;28;20567;-70
2023/07/05 07:40:50;;;;;;;1.13;1.13;;;;;;;;;;4975050;28;20195;-70
2023/07/05 07:43:18;;;;;;;1.33;1.33;;;;;;;;;;4974745;28;20214;-70
2023/07/05 07:45:46;;;;;;;1.25;1.25;;;;;;;;;;4975333;28;20206;-71
2023/07/05 07:48:15;;;;;;;1.08;1.08;;;;;;;;;;4975119;28;20202;-70
2023/07/05 07:50:50;;;;;;;1.30;1.20;;;;;;;;;;4975447;28;20225;-71
2023/07/05 07:53:19;;;;;;;1.33;1.10;;;;;;;;;;4974962;28;20682;-71
2023/07/05 07:55:47;;;;;;;1.40;1.30;;;;;;;;;;4975385;28;20273;-70
2023/07/05 07:58:16;;;;;;;1.08;1.08;;;;;;;;;;4974913;28;20206;-70
2023/07/05 08:00:44;;;;;;;1.38;1.30;;;;;;;;;;4974891;28;20202;-70
2023/07/05 08:03:12;;;;;;;1.00;1.00;;;;;;;;;;4976341;28;20206;-70
2023/07/05 08:05:40;;;;;;;1.20;1.20;;;;;;;;;;4981506;28;20249;-71
2023/07/05 08:08:08;;;;;;;1.10;1.10;;;;;;;;;;4981274;28;20669;-69
2023/07/05 08:10:38;;;;;;;1.05;1.05;;;;;;;;;;4981490;28;20226;-69
2023/07/05 08:13:06;;;;;;;1.15;1.10;;;;;;;;;;4982226;28;20206;-69
2023/07/05 08:15:34;;;;;;;0.90;0.90;;;;;;;;;;4981269;28;20222;-70
2023/07/05 08:18:02;;;;;;;0.90;0.90;;;;;;;;;;4981075;28;20536;-69
2023/07/05 08:20:30;;;;;;;0.80;0.80;;;;;;;;;;4981294;28;20199;-69
2023/07/05 08:22:59;;;;;;;0.98;0.98;;;;;;;;;;4980726;28;20693;-69
2023/07/05 08:25:27;;;;;;;2.85;1.00;;;;;;;;;;4980713;28;20297;-69
2023/07/05 08:27:57;;;;;;;0.88;0.88;;;;;;;;;;4980920;28;20210;-69
2023/07/05 08:30:26;;;;;;;0.85;0.85;;;;;;;;;;4980942;28;20198;-69
2023/07/05 08:32:54;;;;;;;0.80;0.80;;;;;;;;;;4981129;28;20741;-69
2023/07/05 08:35:22;;;;;;;0.70;0.70;;;;;;;;;;4981031;28;20229;-69
2023/07/05 08:37:50;;;;;;;0.60;0.60;;;;;;;;;;4981036;28;20202;-69
2023/07/05 08:40:18;;;;;;;0.60;0.60;;;;;;;;;;4980828;28;20213;-69
2023/07/05 08:42:53;;;;;;;0.57;0.57;;;;;;;;;;4980895;28;20214;-69
2023/07/05 08:45:26;;;;;;;0.75;0.70;;;;;;;;;;4980843;28;20226;-69
2023/07/05 08:47:56;;;;;;;0.50;0.50;;;;;;;;;;4980864;28;20190;-69
2023/07/05 08:50:26;;;;;;;0.40;0.40;;;;;;;;;;4981667;28;20187;-69
2023/07/05 08:52:58;;;;;;;0.40;0.40;;;;;;;;;;4980818;28;20195;-69
2023/07/05 08:55:29;;;;;;;0.50;0.50;;;;;;;;;;4980722;28;20645;-69
2023/07/05 08:57:58;;;;;;;0.65;0.65;;;;;;;;;;4980447;28;20191;-69
2023/07/05 09:00:29;;;;;;;0.50;0.50;;;;;;;;;;4980832;28;20261;-69
2023/07/05 09:02:58;;;;;;;1.65;0.40;;;;;;;;;;4980478;28;20639;-69
2023/07/05 09:05:30;;;;;;;0.73;0.40;;;;;;;;;;4980267;28;20713;-69
2023/07/05 09:08:02;;;;;;;0.50;0.50;;;;;;;;;;4980745;28;20198;-69
2023/07/05 09:10:37;;;;;;;0.20;0.20;;;;;;;;;;4980656;28;20191;-69
2023/07/05 09:13:10;;;;;;;0.30;0.30;;;;;;;;;;4980576;28;20210;-69
2023/07/05 09:15:44;;;;;;;0.30;0.30;;;;;;;;;;4977325;28;20270;-69
2023/07/05 09:18:16;;;;;;;0.35;0.35;;;;;;;;;;4978351;28;20187;-69
2023/07/05 09:20:52;;;;;;;0.40;0.40;;;;;;;;;;4977552;28;20195;-69
2023/07/05 09:23:24;;;;;;;0.45;0.45;;;;;;;;;;4978161;28;20209;-69
2023/07/05 09:25:54;;;;;;;0.35;0.35;;;;;;;;;;4977367;28;20194;-69
2023/07/05 09:28:24;;;;;;;0.30;0.30;;;;;;;;;;4977069;28;20539;-69
2023/07/05 09:30:54;;;;;;;0.35;0.35;;;;;;;;;;4978143;28;20207;-68
2023/07/05 09:33:23;;;;;;;0.30;0.30;;;;;;;;;;4976854;28;20589;-69
2023/07/05 09:35:52;;;;;;;0.35;0.35;;;;;;;;;;4977254;28;20282;-68
2023/07/05 09:38:22;;;;;;;2.92;0.40;;;;;;;;;;4977171;28;20203;-68
2023/07/05 09:40:53;;;;;;;0.65;0.65;;;;;;;;;;4977390;28;20194;-69
2023/07/05 09:43:27;;;;;;;0.40;0.40;;;;;;;;;;4976773;28;20554;-68
2023/07/05 09:45:57;;;;;;;0.50;0.50;;;;;;;;;;4977335;28;20550;-69
2023/07/05 09:48:25;;;;;;;0.30;0.30;;;;;;;;;;4976669;28;20667;-69
2023/07/05 09:50:53;;;;;;;0.52;0.52;;;;;;;;;;4977002;28;20226;-69
2023/07/05 09:53:38;;;;;;;0.30;0.30;;;;;;;;;;4978940;28;20231;-69
2023/07/05 09:56:08;;;;;;;0.38;0.38;;;;;;;;;;4981008;28;20643;-69
2023/07/05 09:58:37;;;;;;;0.50;0.50;;;;;;;;;;4980328;28;20189;-68
2023/07/05 10:01:08;;;;;;;0.40;0.40;;;;;;;;;;4976880;28;20203;-68
2023/07/05 10:03:37;;;;;;;1.65;0.63;;;;;;;;;;4976540;28;20658;-68
2023/07/05 10:06:08;;;;;;;0.52;0.52;;;;;;;;;;4976855;28;20207;-67
2023/07/05 10:08:44;;;;;;;0.40;0.40;;;;;;;;;;4976769;28;20195;-67
2023/07/05 10:11:21;;;;;;;0.50;0.50;;;;;;;;;;4976691;28;20222;-67
2023/07/05 10:14:02;;;;;;;0.80;0.80;;;;;;;;;;4976281;28;20690;-68
2023/07/05 10:16:45;;;;;;;0.73;0.73;;;;;;;;;;4976691;28;20238;-68
2023/07/05 10:19:21;;;;;;;0.60;0.60;;;;;;;;;;4976549;28;20610;-68
2023/07/05 10:21:50;;;;;;;0.57;0.57;;;;;;;;;;4977299;28;20186;-67
2023/07/05 10:24:20;;;;;;;0.50;0.50;;;;;;;;;;4976332;28;20231;-68
2023/07/05 10:26:50;;;;;;;0.50;0.50;;;;;;;;;;4975772;28;20214;-68
2023/07/05 10:29:22;;;;;;;0.60;0.60;;;;;;;;;;4976007;28;20631;-68
2023/07/05 10:31:56;;;;;;;1.33;0.60;;;;;;;;;;4976146;28;20191;-67
2023/07/05 10:34:25;;;;;;;0.60;0.60;;;;;;;;;;4976078;28;20230;-68
2023/07/05 10:36:54;;;;;;;0.77;0.77;;;;;;;;;;4976900;28;20209;-68
2023/07/05 10:39:24;;;;;;;1.60;0.60;;;;;;;;;;4976259;28;20191;-68
2023/07/05 10:41:54;;;;;;;0.70;0.70;;;;;;;;;;4976290;28;20215;-68
2023/07/05 10:44:27;;;;;;;0.80;0.80;;;;;;;;;;4976345;28;20254;-67
2023/07/05 10:46:57;;;;;;;0.70;0.70;;;;;;;;;;4976816;28;20194;-68
2023/07/05 10:49:26;;;;;;;0.60;0.60;;;;;;;;;;4976303;28;20206;-68
2023/07/05 10:51:56;;;;;;;0.80;0.80;;;;;;;;;;4976035;28;20206;-68
2023/07/05 10:54:27;;;;;;;0.77;0.77;;;;;;;;;;4976089;28;20222;-68
2023/07/05 10:56:56;;;;;;;0.70;0.70;;;;;;;;;;4976395;28;20191;-68
2023/07/05 10:59:27;;;;;;;1.60;0.70;;;;;;;;;;4975929;28;20206;-68
2023/07/05 11:02:00;;;;;;;0.80;0.80;;;;;;;;;;4975745;28;20214;-68
2023/07/05 11:04:29;;;;;;;2.00;0.70;;;;;;;;;;4975604;28;20222;-68
2023/07/05 11:07:06;;;;;;;0.90;0.90;;;;;;;;;;4975435;28;20598;-67
2023/07/05 11:09:36;;;;;;;0.68;0.68;;;;;;;;;;4977923;28;20183;-68
2023/07/05 11:12:08;;;;;;;0.90;0.90;;;;;;;;;;4979751;28;20226;-68
2023/07/05 11:14:37;;;;;;;0.90;0.90;;;;;;;;;;4979289;28;20218;-68
2023/07/05 11:17:08;;;;;;;0.80;0.80;;;;;;;;;;4979466;28;20231;-68
2023/07/05 11:19:37;;;;;;;0.60;0.60;;;;;;;;;;4979476;28;20187;-68
2023/07/05 11:22:06;;;;;;;0.77;0.77;;;;;;;;;;4976367;28;20202;-68
2023/07/05 11:24:52;;;;;;;0.60;0.60;;;;;;;;;;4975121;28;20223;-68
2023/07/05 11:27:39;;;;;;;0.93;0.93;;;;;;;;;;4974966;28;20269;-69
2023/07/05 11:30:08;;;;;;;0.93;0.88;;;;;;;;;;4975302;28;20257;-70
2023/07/05 11:32:51;;;;;;;1.13;1.13;;;;;;;;;;4974970;28;20328;-70
2023/07/05 11:35:42;;;;;;;1.00;1.00;;;;;;;;;;4973969;28;20237;-70
2023/07/05 11:38:11;;;;;;;1.40;1.40;;;;;;;;;;4975317;28;20254;-70
2023/07/05 11:41:00;;;;;;;1.40;1.40;;;;;;;;;;4974895;28;20206;-70
2023/07/05 11:43:36;;;;;;;1.50;1.40;;;;;;;;;;4974901;28;20216;-70
2023/07/05 11:46:04;;;;;;;1.73;1.63;;;;;;;;;;4975018;28;20189;-71
2023/07/05 11:48:39;;;;;;;1.90;1.80;;;;;;;;;;4974931;28;20199;-70
2023/07/05 11:51:13;;;;;;;1.70;1.60;;;;;;;;;;4974911;28;20191;-71
2023/07/05 11:53:41;;;;;;;2.33;2.22;;;;;;;;;;4974747;28;20223;-72
2023/07/05 11:56:10;;;;;;;2.40;2.30;;;;;;;;;;4974888;28;20203;-72
2023/07/05 11:58:39;;;;;;;2.17;2.08;;;;;;;;;;4974916;28;20207;-72
2023/07/05 12:01:08;;;;;;;2.42;2.33;;;;;;;;;;4974786;28;20226;-71
2023/07/05 12:03:39;;;;;;;3.10;2.65;;;;;;;;;;4974710;28;20198;-71
2023/07/05 12:06:09;;;;;;;2.95;2.75;;;;;;;;;;4975020;28;20210;-71
2023/07/05 12:08:40;;;;;;;2.70;2.50;;;;;;;;;;4974585;28;20203;-71
2023/07/05 12:11:10;;;;;;;2.45;2.35;;;;;;;;;;4974671;28;20234;-71
2023/07/05 12:13:38;;;;;;;2.83;2.72;;;;;;;;;;4974252;28;20594;-70
2023/07/05 12:16:08;;;;;;;2.90;2.70;;;;;;;;;;4974903;28;20210;-69
2023/07/05 12:18:36;;;;;;;3.13;2.92;;;;;;;;;;4974332;28;20639;-70
2023/07/05 12:21:06;;;;;;;2.83;2.72;;;;;;;;;;4974252;28;20620;-70
2023/07/05 12:23:36;;;;;;;2.85;2.75;;;;;;;;;;4974425;28;20209;-70
2023/07/05 12:26:07;;;;;;;3.30;3.10;;;;;;;;;;4974169;28;20573;-71
2023/07/05 12:28:36;;;;;;;3.33;3.13;;;;;;;;;;4974201;28;20198;-70
2023/07/05 12:31:10;;;;;;;2.88;2.60;;;;;;;;;;4974420;28;20199;-69
2023/07/05 12:33:39;;;;;;;2.50;2.40;;;;;;;;;;4974433;28;20302;-69
2023/07/05 12:36:09;;;;;;;3.08;2.88;;;;;;;;;;4975405;28;20254;-69
2023/07/05 12:38:37;;;;;;;2.90;2.70;;;;;;;;;;4974372;28;20203;-69
2023/07/05 12:41:08;;;;;;;3.03;2.83;;;;;;;;;;4974130;28;20210;-70
2023/07/05 12:43:36;;;;;;;2.42;2.28;;;;;;;;;;4974032;28;20651;-70
2023/07/05 12:46:08;;;;;;;2.58;2.30;;;;;;;;;;4974387;28;20206;-70
2023/07/05 12:48:36;;;;;;;2.70;2.50;;;;;;;;;;4974346;28;20237;-70
2023/07/05 12:51:06;;;;;;;2.70;2.60;;;;;;;;;;4977055;28;20207;-70
2023/07/05 12:53:34;;;;;;;2.15;2.05;;;;;;;;;;4977924;28;20214;-70
2023/07/05 12:56:04;;;;;;;2.60;2.45;;;;;;;;;;4978085;28;20205;-70
2023/07/05 12:58:36;;;;;;;2.50;2.40;;;;;;;;;;4978122;28;20295;-70
2023/07/05 13:01:04;;;;;;;2.05;2.05;;;;;;;;;;4977920;28;20183;-70
2023/07/05 13:03:34;;;;;;;2.30;2.20;;;;;;;;;;4977779;28;20226;-70
2023/07/05 13:06:03;;;;;;;2.40;2.30;;;;;;;;;;4977908;28;20203;-70
2023/07/05 13:08:31;;;;;;;2.00;2.00;;;;;;;;;;4977538;28;20601;-70
2023/07/05 13:11:02;;;;;;;2.78;2.67;;;;;;;;;;4977746;28;20214;-70
2023/07/05 13:13:34;;;;;;;2.55;2.35;;;;;;;;;;4977672;28;20187;-70
2023/07/05 13:16:18;;;;;;;2.45;2.35;;;;;;;;;;4977673;28;20207;-70
2023/07/05 13:18:58;;;;;;;2.10;2.00;;;;;;;;;;4977752;28;20191;-71
2023/07/05 13:21:26;;;;;;;2.10;2.00;;;;;;;;;;4977683;28;20209;-70
2023/07/05 13:23:56;;;;;;;2.55;2.00;;;;;;;;;;4977539;28;20226;-71
2023/07/05 13:26:31;;;;;;;2.13;2.03;;;;;;;;;;4977552;28;20222;-71
2023/07/05 13:29:02;;;;;;;2.13;1.92;;;;;;;;;;4977643;28;20202;-70
2023/07/05 13:31:32;;;;;;;1.33;1.33;;;;;;;;;;4977534;28;20190;-72
2023/07/05 13:34:04;;;;;;;1.80;1.80;;;;;;;;;;4977543;28;20307;-71
2023/07/05 13:36:34;;;;;;;1.83;1.73;;;;;;;;;;4977677;28;20184;-71
2023/07/05 13:39:04;;;;;;;1.58;1.50;;;;;;;;;;4977689;28;20214;-71
2023/07/05 13:41:36;;;;;;;1.60;1.50;;;;;;;;;;4977691;28;20273;-70
2023/07/05 13:44:06;;;;;;;1.38;1.38;;;;;;;;;;4977395;28;20219;-70
2023/07/05 13:46:36;;;;;;;1.92;1.83;;;;;;;;;;4977219;28;20682;-70
2023/07/05 13:49:06;;;;;;;2.03;1.90;;;;;;;;;;4977111;28;20195;-70
2023/07/05 13:51:36;;;;;;;1.50;1.40;;;;;;;;;;4977076;28;20203;-70
2023/07/05 13:54:06;;;;;;;1.45;1.45;;;;;;;;;;4976646;28;20598;-70
2023/07/05 13:56:36;;;;;;;1.58;1.48;;;;;;;;;;4976836;28;20222;-70
2023/07/05 13:59:08;;;;;;;1.40;1.40;;;;;;;;;;4976889;28;20206;-70
2023/07/05 14:01:38;;;;;;;1.50;1.50;;;;;;;;;;4976674;28;20188;-70
2023/07/05 14:04:10;;;;;;;1.85;1.75;;;;;;;;;;4977027;28;20243;-70
2023/07/05 14:06:40;;;;;;;1.83;1.83;;;;;;;;;;4977266;28;20718;-70
2023/07/05 14:09:10;;;;;;;1.55;1.52;;;;;;;;;;4977397;28;20226;-70
2023/07/05 14:11:41;;;;;;;1.30;1.30;;;;;;;;;;4976852;28;20214;-70
2023/07/05 14:14:11;;;;;;;1.50;1.50;;;;;;;;;;4976604;28;20223;-70
2023/07/05 14:16:41;;;;;;;1.58;1.50;;;;;;;;;;4977417;28;20207;-70
2023/07/05 14:19:13;;;;;;;1.80;1.80;;;;;;;;;;4976424;28;20210;-70
2023/07/05 14:21:45;;;;;;;1.30;1.30;;;;;;;;;;4976675;28;20194;-70
2023/07/05 14:24:16;;;;;;;1.40;1.40;;;;;;;;;;4976486;28;20226;-71
2023/07/05 14:26:44;;;;;;;1.63;1.52;;;;;;;;;;4976268;28;20253;-71
2023/07/05 14:29:13;;;;;;;0.95;0.95;;;;;;;;;;4976391;28;20229;-71
2023/07/05 14:31:43;;;;;;;2.35;1.20;;;;;;;;;;4975998;28;20226;-71
2023/07/05 14:34:16;;;;;;;1.20;1.20;;;;;;;;;;4975993;28;20698;-71
2023/07/05 14:36:44;;;;;;;1.10;1.10;;;;;;;;;;4975928;28;20674;-70
2023/07/05 14:39:13;;;;;;;1.02;1.02;;;;;;;;;;4976339;28;20211;-70
2023/07/05 14:41:42;;;;;;;0.95;0.95;;;;;;;;;;4976050;28;20199;-72
2023/07/05 14:44:12;;;;;;;1.30;1.30;;;;;;;;;;4976210;28;20223;-70
2023/07/05 14:46:40;;;;;;;1.30;1.30;;;;;;;;;;4976065;28;20202;-70
2023/07/05 14:49:12;;;;;;;1.08;1.08;;;;;;;;;;4975949;28;20203;-70
2023/07/05 14:51:44;;;;;;;1.20;1.20;;;;;;;;;;4976229;28;20188;-70
2023/07/05 14:54:12;;;;;;;1.30;1.30;;;;;;;;;;4975857;28;20222;-69
2023/07/05 14:56:42;;;;;;;1.10;1.10;;;;;;;;;;4975787;28;20218;-70
2023/07/05 14:59:12;;;;;;;1.20;1.20;;;;;;;;;;4975503;28;20282;-69
2023/07/05 15:01:42;;;;;;;1.05;1.05;;;;;;;;;;4975717;28;20203;-69
2023/07/05 15:04:11;;;;;;;1.10;1.10;;;;;;;;;;4976202;28;20277;-70
2023/07/05 15:06:39;;;;;;;1.02;1.02;;;;;;;;;;4975564;28;20202;-71
2023/07/05 15:09:10;;;;;;;1.20;1.10;;;;;;;;;;4975515;28;20207;-71
2023/07/05 15:11:41;;;;;;;1.52;1.48;;;;;;;;;;4975541;28;20191;-71
2023/07/05 15:14:13;;;;;;;1.30;1.30;;;;;;;;;;4974181;28;20803;-71
2023/07/05 15:16:43;;;;;;;1.40;1.40;;;;;;;;;;4975508;28;20207;-71
2023/07/05 15:19:12;;;;;;;1.60;1.50;;;;;;;;;;4975824;28;20210;-71
2023/07/05 15:21:41;;;;;;;1.20;1.20;;;;;;;;;;4975305;28;20203;-71
2023/07/05 15:24:11;;;;;;;1.30;1.20;;;;;;;;;;4975059;28;20706;-71
2023/07/05 15:26:39;;;;;;;1.60;1.50;;;;;;;;;;4975508;28;20213;-70
2023/07/05 15:29:07;;;;;;;1.65;1.30;;;;;;;;;;4975309;28;20211;-70
2023/07/05 15:31:37;;;;;;;1.27;1.27;;;;;;;;;;4975428;28;20302;-70
2023/07/05 15:34:06;;;;;;;1.15;1.10;;;;;;;;;;4975116;28;20254;-70
2023/07/05 15:36:34;;;;;;;1.20;1.20;;;;;;;;;;4974740;28;20677;-70
2023/07/05 15:39:04;;;;;;;1.70;1.20;;;;;;;;;;4974873;28;20207;-70
2023/07/05 15:41:33;;;;;;;1.50;1.50;;;;;;;;;;4975744;28;20230;-70
2023/07/05 15:44:02;;;;;;;1.30;1.30;;;;;;;;;;4976187;28;20223;-71
2023/07/05 15:46:30;;;;;;;1.23;1.23;;;;;;;;;;4975126;28;20207;-71
2023/07/05 15:48:59;;;;;;;2.55;1.60;;;;;;;;;;4974900;28;20206;-71
2023/07/05 15:51:28;;;;;;;1.10;1.10;;;;;;;;;;4975167;28;20207;-71
2023/07/05 15:53:56;;;;;;;1.63;1.52;;;;;;;;;;4974937;28;20219;-71
2023/07/05 15:56:24;;;;;;;1.38;1.38;;;;;;;;;;4974549;28;20214;-71
2023/07/05 15:59:00;;;;;;;1.20;1.20;;;;;;;;;;4974800;28;20226;-70
2023/07/05 16:01:31;;;;;;;1.10;1.10;;;;;;;;;;4974532;28;20602;-70
2023/07/05 16:04:00;;;;;;;1.20;1.20;;;;;;;;;;4974501;28;20225;-70
2023/07/05 16:06:28;;;;;;;0.88;0.88;;;;;;;;;;4975043;28;20214;-71
2023/07/05 16:08:58;;;;;;;1.20;1.20;;;;;;;;;;4975506;28;20202;-71
2023/07/05 16:11:28;;;;;;;1.40;1.40;;;;;;;;;;4974735;28;20210;-70
2023/07/05 16:13:58;;;;;;;1.20;1.20;;;;;;;;;;4974619;28;20269;-70
2023/07/05 16:16:26;;;;;;;1.00;1.00;;;;;;;;;;4975373;28;20210;-70
2023/07/05 16:18:56;;;;;;;1.00;1.00;;;;;;;;;;4974841;28;20227;-68
2023/07/05 16:21:25;;;;;;;1.27;1.20;;;;;;;;;;4974398;28;20671;-68
2023/07/05 16:23:55;;;;;;;1.30;1.30;;;;;;;;;;4974654;28;20222;-68
2023/07/05 16:26:23;;;;;;;1.15;1.15;;;;;;;;;;4978376;28;20215;-68
2023/07/05 16:28:53;;;;;;;1.60;1.33;;;;;;;;;;4978804;28;20202;-68
2023/07/05 16:31:24;;;;;;;1.10;1.10;;;;;;;;;;4978545;28;20209;-68
2023/07/05 16:33:54;;;;;;;1.33;1.33;;;;;;;;;;4978366;28;20230;-68
2023/07/05 16:36:27;;;;;;;1.42;1.42;;;;;;;;;;4979498;28;20199;-68
2023/07/05 16:38:57;;;;;;;1.33;1.23;;;;;;;;;;4978261;28;20297;-68
2023/07/05 16:41:27;;;;;;;1.17;1.17;;;;;;;;;;5001205;23;20226;-72
2023/07/05 16:43:56;;;;;;;1.25;1.25;;;;;;;;;;4978877;28;20230;-72
2023/07/05 16:46:25;;;;;;;3.13;1.80;;;;;;;;;;4978605;28;20203;-72
2023/07/05 16:48:56;;;;;;;1.30;1.30;;;;;;;;;;4979204;28;20213;-72
2023/07/05 16:51:26;;;;;;;1.65;1.20;;;;;;;;;;4978403;28;20242;-73
2023/07/05 16:53:56;;;;;;;1.17;1.17;;;;;;;;;;4978372;28;20203;-71
2023/07/05 16:56:25;;;;;;;1.25;1.25;;;;;;;;;;4978373;28;20190;-71
2023/07/05 16:58:53;;;;;;;1.38;1.38;;;;;;;;;;4978673;28;20313;-71
2023/07/05 17:01:23;;;;;;;2.10;1.50;;;;;;;;;;4978185;28;20250;-72
2023/07/05 17:03:54;;;;;;;1.38;1.27;;;;;;;;;;4978148;28;20203;-72
2023/07/05 17:06:23;;;;;;;1.52;1.45;;;;;;;;;;4978117;28;20227;-71
2023/07/05 17:08:53;;;;;;;1.73;1.63;;;;;;;;;;4978059;28;20230;-70
2023/07/05 17:11:23;;;;;;;1.30;1.30;;;;;;;;;;4978151;28;20227;-70
2023/07/05 17:13:53;;;;;;;1.17;1.17;;;;;;;;;;4977889;28;20206;-71
2023/07/05 17:16:23;;;;;;;1.20;1.20;;;;;;;;;;4977958;28;20590;-72
2023/07/05 17:18:53;;;;;;;1.42;1.30;;;;;;;;;;4977969;28;20606;-72
2023/07/05 17:21:23;;;;;;;1.10;1.10;;;;;;;;;;4977695;28;20281;-71
2023/07/05 17:23:54;;;;;;;1.13;1.13;;;;;;;;;;4978406;28;20202;-71
2023/07/05 17:26:24;;;;;;;1.30;1.30;;;;;;;;;;4977662;28;20227;-71
2023/07/05 17:28:54;;;;;;;1.48;1.30;;;;;;;;;;4977716;28;20199;-71
2023/07/05 17:31:23;;;;;;;1.42;1.33;;;;;;;;;;4977407;28;20234;-71
2023/07/05 17:33:54;;;;;;;1.15;1.15;;;;;;;;;;4977231;28;20670;-72
2023/07/05 17:36:25;;;;;;;1.00;1.00;;;;;;;;;;4976260;28;20191;-72
2023/07/05 17:38:56;;;;;;;1.25;1.20;;;;;;;;;;4977295;28;20211;-71
2023/07/05 17:41:25;;;;;;;1.15;1.15;;;;;;;;;;4976900;28;20661;-71
2023/07/05 17:43:54;;;;;;;1.17;1.17;;;;;;;;;;4977163;28;20210;-71
2023/07/05 17:46:23;;;;;;;1.00;1.00;;;;;;;;;;4977308;28;20206;-71
2023/07/05 17:48:55;;;;;;;1.00;1.00;;;;;;;;;;4977170;28;20230;-71
2023/07/05 17:51:25;;;;;;;0.80;0.80;;;;;;;;;;4977515;28;20227;-71
2023/07/05 17:53:54;;;;;;;1.10;1.10;;;;;;;;;;4978181;28;20183;-73
2023/07/05 17:56:24;;;;;;;1.40;1.30;;;;;;;;;;4977344;28;20206;-72
2023/07/05 17:58:54;;;;;;;1.00;1.00;;;;;;;;;;4977644;28;20194;-72
2023/07/05 18:01:24;;;;;;;1.35;1.35;;;;;;;;;;4983649;28;20223;-72
2023/07/05 18:03:54;;;;;;;0.90;0.90;;;;;;;;;;4994626;28;20223;-73
2023/07/05 18:06:22;;;;;;;1.25;1.10;;;;;;;;;;4988831;28;20261;-72
2023/07/05 18:08:52;;;;;;;0.90;0.90;;;;;;;;;;4977243;28;20215;-71
2023/07/05 18:11:22;;;;;;;1.00;1.00;;;;;;;;;;4977160;28;20309;-72
2023/07/05 18:13:52;;;;;;;1.48;1.48;;;;;;;;;;4977221;28;20207;-71
2023/07/05 18:16:22;;;;;;;1.20;1.20;;;;;;;;;;4977038;28;20191;-73
2023/07/05 18:18:50;;;;;;;1.65;1.58;;;;;;;;;;4977452;28;20195;-74
2023/07/05 18:21:25;;;;;;;1.20;1.20;;;;;;;;;;4977112;28;20637;-72
2023/07/05 18:23:53;;;;;;;1.42;1.40;;;;;;;;;;4976957;28;20194;-73
2023/07/05 18:26:22;;;;;;;1.20;1.20;;;;;;;;;;4976682;28;20210;-72
2023/07/05 18:28:51;;;;;;;1.30;1.30;;;;;;;;;;4976582;28;20674;-73
2023/07/05 18:31:20;;;;;;;1.05;1.05;;;;;;;;;;4976337;28;20622;-73
2023/07/05 18:33:49;;;;;;;1.20;1.20;;;;;;;;;;4976658;28;20660;-72
2023/07/05 18:36:20;;;;;;;1.25;1.25;;;;;;;;;;4977351;28;20542;-73
2023/07/05 18:38:52;;;;;;;1.08;1.08;;;;;;;;;;4976520;28;20227;-73
2023/07/05 18:41:24;;;;;;;1.13;1.13;;;;;;;;;;4976871;28;20718;-71
2023/07/05 18:43:55;;;;;;;1.20;1.20;;;;;;;;;;4976560;28;20198;-71
2023/07/05 18:46:26;;;;;;;1.10;1.10;;;;;;;;;;4976521;28;20188;-72
2023/07/05 18:48:59;;;;;;;1.20;1.20;;;;;;;;;;4976394;28;20188;-73
2023/07/05 18:51:41;;;;;;;1.10;1.00;;;;;;;;;;4976819;28;20215;-72
2023/07/05 18:54:36;;;;;;;1.00;1.00;;;;;;;;;;4977330;28;20192;-71
2023/07/05 18:57:45;;;;;;;0.90;0.90;;;;;;;;;;4977956;28;20196;-71
2023/07/05 19:00:54;;;;;;;1.00;1.00;;;;;;;;;;4978139;28;20187;-71
2023/07/05 19:04:03;;;;;;;0.90;0.90;;;;;;;;;;4977169;28;20262;-72
2023/07/05 19:07:13;;;;;;;1.20;1.20;;;;;;;;;;4976267;28;20184;-71
2023/07/05 19:10:25;;;;;;;0.82;0.82;;;;;;;;;;4975683;28;20730;-71
2023/07/05 19:13:36;;;;;;;1.25;1.15;;;;;;;;;;4975983;28;20203;-70
2023/07/05 19:16:48;;;;;;;0.93;0.93;;;;;;;;;;4976242;28;20190;-71